createdAt,value
2019-06-27T00:01:17.511Z,595.80
2019-06-27T00:03:46.065Z,467.30
2019-06-27T00:06:14.651Z,558.73
2019-06-27T00:08:43.221Z,599.40
2019-06-27T00:11:11.895Z,561.47
2019-06-27T00:13:40.604Z,571.67
2019-06-27T00:16:09.265Z,592.13
2019-06-27T00:18:37.973Z,603.67
2019-06-27T00:21:06.648Z,322.70
2019-06-27T00:23:35.211Z,506.17
2019-06-27T00:26:03.805Z,600.37
2019-06-27T00:28:32.450Z,516.57
2019-06-27T00:31:01.083Z,544.50
2019-06-27T00:33:29.655Z,600.27
2019-06-27T00:35:58.263Z,562.70
2019-06-27T00:38:26.872Z,448.63
2019-06-27T00:40:55.472Z,307.30
2019-06-27T00:43:24.213Z,551.03
2019-06-27T00:45:52.800Z,136.17
2019-06-27T00:48:21.430Z,215.67
2019-06-27T00:50:49.974Z,181.63
2019-06-27T00:53:18.559Z,505.40
2019-06-27T00:55:47.167Z,260.33
2019-06-27T00:58:15.737Z,477.13
2019-06-27T01:00:44.319Z,438.13
2019-06-27T01:03:12.892Z,528.57
2019-06-27T01:05:41.464Z,404.47
2019-06-27T01:08:10.039Z,586.27
2019-06-27T01:10:39.688Z,35.33
2019-06-27T01:13:08.224Z,5.67
2019-06-27T01:15:37.838Z,322.17
2019-06-27T01:18:06.556Z,203.30
2019-06-27T01:20:35.146Z,460.40
2019-06-27T01:23:03.715Z,251.23
2019-06-27T01:25:32.296Z,201.73
2019-06-27T01:28:00.886Z,453.13
2019-06-27T01:30:30.490Z,128.23
2019-06-27T01:32:59.055Z,490.83
2019-06-27T01:35:27.666Z,465.13
2019-06-27T01:37:56.321Z,502.43
2019-06-27T01:40:24.912Z,400.00
2019-06-27T01:42:53.545Z,379.97
2019-06-27T01:45:29.951Z,477.83
2019-06-27T01:47:58.542Z,483.40
2019-06-27T01:50:27.177Z,491.80
2019-06-27T01:52:55.836Z,351.30
2019-06-27T01:55:24.591Z,405.27
2019-06-27T01:57:53.227Z,440.13
2019-06-27T02:00:22.448Z,531.17
2019-06-27T02:02:50.976Z,490.53
2019-06-27T02:05:19.721Z,510.67
2019-06-27T02:07:48.389Z,557.10
2019-06-27T02:10:18.784Z,452.37
2019-06-27T02:12:47.398Z,570.23
2019-06-27T02:15:16.798Z,459.70
2019-06-27T02:17:45.476Z,341.37
2019-06-27T02:20:14.374Z,418.13
2019-06-27T02:22:42.887Z,456.53
2019-06-27T02:25:11.981Z,554.83
2019-06-27T02:27:40.565Z,566.37
2019-06-27T02:30:09.869Z,358.10
2019-06-27T02:32:38.477Z,462.87
2019-06-27T02:35:08.290Z,452.33
2019-06-27T02:37:36.874Z,529.93
2019-06-27T02:40:08.795Z,558.60
2019-06-27T02:42:37.406Z,563.80
2019-06-27T02:45:07.810Z,560.70
2019-06-27T02:47:36.393Z,562.97
2019-06-27T02:50:07.301Z,402.43
2019-06-27T02:52:35.887Z,430.00
2019-06-27T02:55:05.304Z,554.90
2019-06-27T02:57:33.867Z,494.50
2019-06-27T03:00:02.500Z,513.70
2019-06-27T03:02:31.119Z,559.43
2019-06-27T03:04:59.656Z,554.63
2019-06-27T03:07:28.244Z,523.80
2019-06-27T03:09:56.890Z,544.87
2019-06-27T03:12:25.487Z,522.73
2019-06-27T03:14:54.062Z,216.77
2019-06-27T03:17:22.626Z,561.00
2019-06-27T03:19:51.240Z,555.37
2019-06-27T03:22:19.781Z,130.07
2019-06-27T03:24:48.378Z,151.03
2019-06-27T03:27:16.967Z,538.13
2019-06-27T03:29:45.647Z,542.40
2019-06-27T03:32:14.193Z,555.60
2019-06-27T03:34:42.826Z,539.27
2019-06-27T03:37:11.475Z,504.00
2019-06-27T03:39:40.102Z,560.30
2019-06-27T03:42:08.680Z,552.83
2019-06-27T03:44:37.276Z,552.87
2019-06-27T03:47:05.838Z,550.97
2019-06-27T03:49:34.450Z,534.27
2019-06-27T03:52:03.009Z,535.00
2019-06-27T03:54:31.663Z,536.63
2019-06-27T03:57:00.307Z,494.43
2019-06-27T03:59:28.899Z,483.30
2019-06-27T04:01:57.466Z,530.97
2019-06-27T04:04:26.051Z,447.97
2019-06-27T04:06:54.644Z,550.43
2019-06-27T04:09:23.294Z,514.93
2019-06-27T04:11:51.885Z,495.87
2019-06-27T04:14:20.493Z,530.27
2019-06-27T04:16:49.652Z,513.27
2019-06-27T04:19:18.418Z,332.97
2019-06-27T04:21:47.082Z,523.63
2019-06-27T04:24:15.781Z,507.17
2019-06-27T04:26:44.327Z,543.73
2019-06-27T04:29:32.146Z,545.83
2019-06-27T04:31:43.207Z,532.77
2019-06-27T04:34:11.799Z,520.90
2019-06-27T04:36:40.377Z,541.10
2019-06-27T04:39:08.961Z,537.77
2019-06-27T04:41:37.556Z,171.03
2019-06-27T04:44:06.129Z,538.30
2019-06-27T04:46:34.740Z,536.80
2019-06-27T04:49:03.373Z,545.80
2019-06-27T04:51:32.003Z,564.27
2019-06-27T04:54:00.544Z,468.07
2019-06-27T04:56:29.178Z,473.27
2019-06-27T04:58:57.737Z,286.57
2019-06-27T05:01:26.393Z,44.10
2019-06-27T05:03:54.997Z,16.20
2019-06-27T05:06:23.542Z,6.87
2019-06-27T05:08:52.128Z,2.67
2019-06-27T05:11:20.707Z,305.00
2019-06-27T05:13:49.298Z,301.87
2019-06-27T05:16:17.867Z,376.60
2019-06-27T05:18:46.564Z,346.70
2019-06-27T05:21:15.124Z,141.07
2019-06-27T05:23:43.726Z,175.80
2019-06-27T05:26:12.294Z,477.47
2019-06-27T05:28:40.978Z,514.20
2019-06-27T05:31:09.633Z,215.43
2019-06-27T05:33:38.192Z,71.93
2019-06-27T05:36:06.794Z,11.87
2019-06-27T05:38:35.332Z,4.30
2019-06-27T05:41:04.107Z,6.20
2019-06-27T05:43:32.667Z,6.53
2019-06-27T05:46:01.288Z,4.60
2019-06-27T05:48:29.855Z,318.47
2019-06-27T05:50:58.464Z,407.10
2019-06-27T05:53:26.999Z,571.13
2019-06-27T05:55:55.577Z,580.30
2019-06-27T05:58:24.160Z,558.20
2019-06-27T06:00:52.750Z,507.90
2019-06-27T06:03:21.300Z,449.37
2019-06-27T06:05:49.910Z,533.07
2019-06-27T06:08:18.468Z,474.73
2019-06-27T06:10:47.053Z,558.73
2019-06-27T06:13:15.619Z,567.83
2019-06-27T06:15:44.127Z,506.97
2019-06-27T06:18:12.684Z,292.80
2019-06-27T06:20:41.419Z,157.07
2019-06-27T06:23:09.994Z,143.90
2019-06-27T06:25:38.572Z,11.27
2019-06-27T06:28:07.143Z,3.33
2019-06-27T06:30:44.336Z,3.50
2019-06-27T06:33:05.987Z,4.77
2019-06-27T06:35:34.563Z,3.47
2019-06-27T06:38:03.120Z,6.17
2019-06-27T06:40:31.807Z,3.83
2019-06-27T06:43:00.818Z,3.90
2019-06-27T06:45:29.576Z,5.03
2019-06-27T06:47:58.135Z,3.80
2019-06-27T06:50:26.754Z,3.80
2019-06-27T06:52:55.294Z,2.60
2019-06-27T06:55:23.846Z,4.60
2019-06-27T06:57:52.432Z,2.80
2019-06-27T07:00:22.433Z,7.57
2019-06-27T07:02:51.006Z,3.80
2019-06-27T07:05:19.560Z,2.97
2019-06-27T07:07:48.126Z,2.87
2019-06-27T07:10:17.009Z,3.00
2019-06-27T07:12:45.647Z,4.23
2019-06-27T07:15:14.259Z,3.07
2019-06-27T07:17:42.865Z,3.10
2019-06-27T07:20:12.467Z,3.07
2019-06-27T07:22:41.055Z,4.60
2019-06-27T07:25:09.832Z,3.80
2019-06-27T07:27:38.387Z,2.47
2019-06-27T07:30:07.210Z,3.15
2019-06-27T07:32:35.925Z,3.75
2019-06-27T07:35:06.343Z,3.10
2019-06-27T07:37:34.843Z,2.87
2019-06-27T07:40:05.253Z,1.65
2019-06-27T07:42:33.791Z,4.72
2019-06-27T07:45:02.415Z,2.70
2019-06-27T07:47:30.940Z,4.55
2019-06-27T07:49:59.541Z,3.90
2019-06-27T07:52:28.082Z,4.08
2019-06-27T07:54:56.665Z,4.20
2019-06-27T07:57:25.219Z,3.12
2019-06-27T07:59:53.695Z,3.30
2019-06-27T08:02:22.290Z,3.30
2019-06-27T08:04:50.838Z,5.00
2019-06-27T08:07:21.331Z,1.85
2019-06-27T08:09:49.596Z,3.17
2019-06-27T08:12:18.153Z,2.65
2019-06-27T08:14:47.379Z,7.12
2019-06-27T08:17:15.974Z,1.92
2019-06-27T08:19:55.239Z,2.02
2019-06-27T08:22:23.827Z,4.20
2019-06-27T08:24:52.399Z,3.85
2019-06-27T08:27:20.992Z,4.37
2019-06-27T08:29:49.548Z,2.35
2019-06-27T08:32:18.126Z,2.05
2019-06-27T08:34:46.713Z,3.35
2019-06-27T08:37:15.276Z,8.63
2019-06-27T08:39:43.855Z,1.30
2019-06-27T08:42:12.431Z,3.70
2019-06-27T08:44:41.015Z,1.90
2019-06-27T08:47:09.571Z,3.83
2019-06-27T08:49:38.219Z,2.83
2019-06-27T08:52:06.883Z,2.37
2019-06-27T08:54:35.439Z,3.02
2019-06-27T08:57:04.133Z,1.92
2019-06-27T08:59:32.701Z,1.65
2019-06-27T09:02:08.594Z,4.12
2019-06-27T09:04:31.496Z,1.57
2019-06-27T09:07:00.156Z,2.60
2019-06-27T09:09:29.752Z,4.35
2019-06-27T09:11:58.424Z,4.80
2019-06-27T09:14:26.988Z,3.83
2019-06-27T09:16:55.571Z,2.67
2019-06-27T09:19:24.302Z,4.45
2019-06-27T09:21:52.883Z,6.70
2019-06-27T09:24:21.463Z,3.75
2019-06-27T09:26:50.090Z,3.00
2019-06-27T09:29:18.666Z,1.80
2019-06-27T09:31:47.284Z,2.77
2019-06-27T09:34:15.859Z,1.72
2019-06-27T09:36:46.412Z,3.20
2019-06-27T09:39:15.029Z,2.80
2019-06-27T09:41:43.608Z,509.93
2019-06-27T09:44:12.194Z,2.65
2019-06-27T09:46:40.730Z,4.05
2019-06-27T09:49:09.381Z,4.30
2019-06-27T09:51:37.952Z,3.83
2019-06-27T09:54:06.566Z,3.75
2019-06-27T09:56:35.251Z,2.67
2019-06-27T09:59:03.787Z,2.25
2019-06-27T10:01:32.362Z,3.02
2019-06-27T10:04:00.918Z,2.02
2019-06-27T10:06:29.501Z,2.50
2019-06-27T10:08:58.324Z,2.37
2019-06-27T10:11:27.025Z,2.35
2019-06-27T10:13:55.605Z,3.30
2019-06-27T10:16:24.194Z,1.92
2019-06-27T10:18:52.757Z,3.58
2019-06-27T10:21:21.357Z,2.12
2019-06-27T10:23:49.908Z,5.55
2019-06-27T10:26:18.501Z,2.02
2019-06-27T10:28:47.030Z,1.45
2019-06-27T10:31:15.593Z,2.62
2019-06-27T10:33:44.188Z,5.83
2019-06-27T10:36:12.750Z,3.15
2019-06-27T10:38:41.512Z,4.25
2019-06-27T10:41:10.138Z,8.75
2019-06-27T10:43:38.685Z,2.77
2019-06-27T10:46:07.216Z,3.50
2019-06-27T10:48:35.791Z,6.97
2019-06-27T10:51:04.368Z,6.40
2019-06-27T10:53:34.451Z,7.20
2019-06-27T10:56:03.112Z,106.55
2019-06-27T10:58:31.762Z,24.50
2019-06-27T11:01:00.381Z,368.40
2019-06-27T11:03:28.989Z,89.00
2019-06-27T11:05:57.556Z,102.02
2019-06-27T11:08:26.132Z,202.80
2019-06-27T11:10:57.365Z,31.93
2019-06-27T11:13:26.876Z,250.22
2019-06-27T11:15:55.842Z,702.95
2019-06-27T11:18:24.427Z,695.27
2019-06-27T11:20:55.343Z,715.98
2019-06-27T11:23:25.156Z,674.30
2019-06-27T11:25:53.901Z,703.55
2019-06-27T11:28:22.499Z,701.25
2019-06-27T11:30:55.774Z,644.67
2019-06-27T11:33:32.569Z,683.67
2019-06-27T11:35:56.214Z,352.65
2019-06-27T11:38:30.244Z,217.57
2019-06-27T11:41:04.699Z,299.83
2019-06-27T11:43:38.059Z,221.65
2019-06-27T11:46:10.484Z,342.57
2019-06-27T11:48:50.970Z,488.75
2019-06-27T12:55:37.323Z,53.92
2019-06-27T12:58:05.978Z,709.80
2019-06-27T13:00:34.774Z,724.90
2019-06-27T13:03:03.319Z,35.78
2019-06-27T13:05:31.977Z,699.50
2019-06-27T13:08:00.554Z,460.23
2019-06-27T13:10:35.706Z,61.25
2019-06-27T13:13:05.121Z,694.67
2019-06-27T13:15:34.061Z,138.40
2019-06-27T13:18:02.687Z,84.92
2019-06-27T13:20:31.369Z,566.88
2019-06-27T13:22:59.958Z,692.13
2019-06-27T13:25:28.648Z,705.00
2019-06-27T13:27:57.296Z,289.87
2019-06-27T13:30:25.977Z,704.63
2019-06-27T13:32:54.550Z,378.77
2019-06-27T13:35:23.153Z,35.60
2019-06-27T13:37:51.706Z,203.05
2019-06-27T13:40:20.431Z,698.70
2019-06-27T13:42:49.558Z,682.90
2019-06-27T13:45:18.346Z,508.60
2019-06-27T13:47:46.870Z,685.83
2019-06-27T13:50:15.748Z,126.75
2019-06-27T13:52:44.389Z,715.87
2019-06-27T13:55:13.119Z,692.83
2019-06-27T13:57:41.762Z,711.33
2019-06-27T14:00:10.785Z,7.12
2019-06-27T14:02:39.339Z,21.45
2019-06-27T14:05:08.342Z,699.57
2019-06-27T14:07:36.920Z,691.27
2019-06-27T14:10:07.537Z,681.13
2019-06-27T14:12:36.157Z,639.53
2019-06-27T14:15:06.625Z,690.13
2019-06-27T14:17:35.259Z,590.27
2019-06-27T14:20:05.393Z,569.33
2019-06-27T14:22:34.309Z,668.80
2019-06-27T14:25:02.907Z,39.25
2019-06-27T14:27:31.480Z,577.63
2019-06-27T14:30:00.061Z,427.07
2019-06-27T14:32:28.637Z,203.23
2019-06-27T14:35:10.729Z,182.70
2019-06-27T14:37:27.555Z,691.37
2019-06-27T14:39:56.719Z,195.40
2019-06-27T14:42:25.460Z,73.67
2019-06-27T14:44:54.103Z,555.47
2019-06-27T14:47:22.643Z,677.20
2019-06-27T14:49:51.207Z,676.10
2019-06-27T14:52:19.805Z,661.73
2019-06-27T14:54:48.642Z,441.57
2019-06-27T14:57:17.250Z,671.23
2019-06-27T14:59:45.796Z,617.57
2019-06-27T15:02:14.383Z,551.37
2019-06-27T15:04:42.956Z,665.23
2019-06-27T15:07:11.532Z,483.37
2019-06-27T15:09:40.021Z,646.07
2019-06-27T15:12:08.596Z,291.87
2019-06-27T15:14:37.096Z,74.17
2019-06-27T15:17:05.668Z,5.90
2019-06-27T15:19:34.236Z,581.07
2019-06-27T15:22:02.823Z,621.53
2019-06-27T15:24:31.414Z,461.87
2019-06-27T15:26:59.966Z,280.17
2019-06-27T15:29:28.531Z,649.60
2019-06-27T15:31:57.184Z,5.83
2019-06-27T15:34:25.753Z,162.33
2019-06-27T15:36:54.337Z,54.70
2019-06-27T15:39:22.898Z,4.23
2019-06-27T15:41:51.510Z,598.60
2019-06-27T15:44:20.823Z,612.87
2019-06-27T15:46:49.474Z,587.17
2019-06-27T15:49:18.038Z,468.43
2019-06-27T15:51:46.668Z,270.30
2019-06-27T15:54:15.278Z,412.13
2019-06-27T15:56:43.830Z,384.03
2019-06-27T15:59:12.433Z,320.90
2019-06-27T16:01:41.009Z,571.20
2019-06-27T16:04:09.611Z,593.10
2019-06-27T16:06:38.172Z,592.00
2019-06-27T16:09:07.132Z,545.63
2019-06-27T16:11:35.716Z,576.57
2019-06-27T16:14:04.361Z,579.43
2019-06-27T16:16:32.914Z,8.20
2019-06-27T16:19:01.502Z,551.03
2019-06-27T16:21:30.176Z,347.40
2019-06-27T16:23:58.829Z,251.17
2019-06-27T16:26:27.411Z,570.73
2019-06-27T16:28:55.954Z,9.80
2019-06-27T16:31:24.621Z,582.97
2019-06-27T16:33:53.175Z,588.33
2019-06-27T16:36:25.874Z,576.37
2019-06-27T16:38:51.981Z,582.50
2019-06-27T16:41:20.666Z,41.60
2019-06-27T16:43:49.267Z,576.00
2019-06-27T16:46:17.867Z,564.20
2019-06-27T16:48:46.436Z,592.67
2019-06-27T16:51:14.934Z,600.00
2019-06-27T16:53:43.458Z,596.07
2019-06-27T16:56:12.024Z,579.70
2019-06-27T16:58:40.616Z,584.13
2019-06-27T17:01:09.188Z,584.53
2019-06-27T17:03:37.767Z,520.17
2019-06-27T17:06:06.407Z,407.43
2019-06-27T17:08:34.993Z,4.43
2019-06-27T17:11:03.557Z,16.23
2019-06-27T17:13:32.181Z,477.00
2019-06-27T17:16:00.752Z,316.07
2019-06-27T17:18:29.413Z,210.47
2019-06-27T17:20:58.025Z,371.13
2019-06-27T17:23:26.668Z,161.27
2019-06-27T17:25:56.472Z,560.70
2019-06-27T17:28:25.135Z,583.20
2019-06-27T17:30:53.684Z,570.37
2019-06-27T17:33:22.189Z,578.07
2019-06-27T17:35:50.755Z,5.33
2019-06-27T17:38:19.321Z,596.30
2019-06-27T17:40:47.911Z,111.07
2019-06-27T17:43:16.487Z,589.70
2019-06-27T17:45:45.129Z,580.83
2019-06-27T17:48:13.706Z,594.67
2019-06-27T17:50:42.283Z,14.83
2019-06-27T17:53:10.859Z,597.27
2019-06-27T17:55:39.474Z,583.83
2019-06-27T17:58:08.015Z,613.30
2019-06-27T18:00:36.679Z,762.57
2019-06-27T18:03:05.316Z,585.90
2019-06-27T18:05:33.882Z,238.63
2019-06-27T18:08:02.455Z,574.50
2019-06-27T18:10:31.022Z,276.70
2019-06-27T18:12:59.589Z,539.37
2019-06-27T18:15:28.169Z,578.57
2019-06-27T18:17:56.720Z,594.17
2019-06-27T18:20:25.260Z,6.17
2019-06-27T18:22:53.831Z,676.03
2019-06-27T18:25:22.438Z,577.13
2019-06-27T18:27:51.166Z,558.03
2019-06-27T18:30:19.982Z,141.90
2019-06-27T18:32:48.807Z,610.17
2019-06-27T18:35:17.530Z,588.37
2019-06-27T18:37:46.100Z,470.17
2019-06-27T18:40:14.925Z,10.03
2019-06-27T18:42:43.464Z,578.10
2019-06-27T18:45:12.888Z,586.27
2019-06-27T18:47:41.453Z,255.00
2019-06-27T18:50:10.378Z,6.13
2019-06-27T18:52:38.940Z,577.93
2019-06-27T18:55:07.652Z,580.00
2019-06-27T18:57:36.268Z,577.77
2019-06-27T19:00:07.236Z,574.53
2019-06-27T19:02:35.796Z,567.27
2019-06-27T19:05:05.809Z,494.53
2019-06-27T19:07:44.872Z,516.43
2019-06-27T19:10:08.956Z,65.47
2019-06-27T19:12:37.602Z,600.10
2019-06-27T19:15:07.618Z,592.00
2019-06-27T19:17:36.192Z,525.40
2019-06-27T19:20:08.443Z,499.63
2019-06-27T19:22:54.372Z,515.90
2019-06-27T19:25:24.498Z,575.13
2019-06-27T19:27:53.026Z,559.87
2019-06-27T19:30:21.602Z,490.13
2019-06-27T19:32:50.178Z,375.77
2019-06-27T19:35:18.748Z,321.90
2019-06-27T19:38:00.936Z,196.03
2019-06-27T19:40:17.710Z,387.90
2019-06-27T19:42:46.362Z,332.03
2019-06-27T19:45:16.454Z,446.83
2019-06-27T19:47:45.035Z,516.37
2019-06-27T19:50:13.757Z,538.93
2019-06-27T19:52:42.330Z,563.43
2019-06-27T19:55:11.337Z,533.97
2019-06-27T19:57:39.957Z,537.90
2019-06-27T20:00:08.856Z,569.30
2019-06-27T20:02:37.432Z,571.47
2019-06-27T20:05:07.134Z,536.67
2019-06-27T20:07:35.772Z,581.93
2019-06-27T20:10:07.527Z,527.23
2019-06-27T20:12:36.101Z,582.47
2019-06-27T20:15:05.320Z,582.43
2019-06-27T20:17:33.886Z,570.73
2019-06-27T20:20:02.472Z,563.03
2019-06-27T20:22:31.056Z,575.93
2019-06-27T20:24:59.652Z,574.53
2019-06-27T20:27:28.252Z,586.10
2019-06-27T20:29:57.678Z,587.23
2019-06-27T20:32:26.258Z,578.10
2019-06-27T20:34:54.828Z,556.17
2019-06-27T20:37:26.065Z,574.60
2019-06-27T20:39:53.643Z,554.57
2019-06-27T20:42:22.276Z,570.70
2019-06-27T20:44:50.838Z,194.50
2019-06-27T20:47:19.449Z,475.93
2019-06-27T20:49:48.014Z,479.77
2019-06-27T20:52:16.596Z,493.03
2019-06-27T20:54:45.170Z,444.20
2019-06-27T20:57:13.802Z,323.87
2019-06-27T20:59:42.370Z,266.33
2019-06-27T21:02:10.951Z,168.20
2019-06-27T21:04:39.526Z,3.83
2019-06-27T21:07:09.968Z,38.17
2019-06-27T21:09:38.433Z,107.00
2019-06-27T21:12:07.055Z,44.17
2019-06-27T21:14:35.619Z,10.63
2019-06-27T21:17:04.324Z,99.53
2019-06-27T21:19:32.885Z,11.67
2019-06-27T21:22:01.383Z,5.70
2019-06-27T21:24:29.950Z,1.83
2019-06-27T21:26:58.677Z,6.37
2019-06-27T21:29:27.245Z,2.10
2019-06-27T21:31:55.859Z,5.27
2019-06-27T21:34:24.430Z,2.00
2019-06-27T21:36:53.050Z,4.13
2019-06-27T21:39:21.611Z,2.33
2019-06-27T21:41:50.296Z,2.20
2019-06-27T21:44:18.879Z,1.40
2019-06-27T21:46:47.420Z,3.80
2019-06-27T21:49:15.917Z,3.97
2019-06-27T21:51:44.719Z,2.00
2019-06-27T21:54:13.249Z,3.13
2019-06-27T21:56:41.803Z,1.60
2019-06-27T21:59:10.344Z,5.80
2019-06-27T22:01:39.046Z,4.73
2019-06-27T22:04:07.744Z,1.63
2019-06-27T22:06:36.303Z,2.60
2019-06-27T22:09:20.027Z,0.97
2019-06-27T22:11:37.527Z,0.80
2019-06-27T22:14:06.262Z,1.37
2019-06-27T22:16:34.926Z,3.10
2019-06-27T22:19:03.705Z,1.90
2019-06-27T22:21:32.243Z,2.20
2019-06-27T22:24:00.749Z,6.80
2019-06-27T22:26:29.317Z,1.37
2019-06-27T22:28:57.854Z,2.93
2019-06-27T22:31:26.486Z,0.87
2019-06-27T22:33:55.035Z,0.93
2019-06-27T22:36:23.675Z,1.27
2019-06-27T22:39:09.634Z,1.27
2019-06-27T22:41:56.065Z,1.93
2019-06-27T22:44:42.251Z,1.70
2019-06-27T22:47:28.433Z,1.20
2019-06-27T22:49:56.323Z,1.43
2019-06-27T22:52:31.975Z,2.30
2019-06-27T22:55:02.169Z,1.53
2019-06-27T22:57:30.798Z,1.97
2019-06-27T22:59:59.348Z,2.20
2019-06-27T23:02:27.850Z,2.77
2019-06-27T23:04:56.392Z,2.30
2019-06-27T23:07:24.961Z,2.20
2019-06-27T23:09:57.293Z,1.00
2019-06-27T23:12:23.791Z,1.27
2019-06-27T23:14:52.300Z,2.10
2019-06-27T23:17:20.842Z,1.63
2019-06-27T23:19:49.385Z,1.20
2019-06-27T23:22:17.953Z,1.10
2019-06-27T23:24:46.488Z,1.53
2019-06-27T23:27:15.045Z,2.13
2019-06-27T23:29:43.609Z,6.53
2019-06-27T23:32:12.170Z,25.07
2019-06-27T23:34:40.766Z,64.03
2019-06-27T23:37:09.373Z,2.17
2019-06-27T23:39:37.870Z,40.57
2019-06-27T23:42:06.368Z,150.13
2019-06-27T23:44:34.936Z,190.13
2019-06-27T23:47:03.519Z,304.80
2019-06-27T23:49:32.110Z,361.30
2019-06-27T23:52:00.792Z,373.57
2019-06-27T23:54:29.366Z,384.03
2019-06-27T23:56:57.957Z,391.83
2019-06-27T23:59:26.507Z,491.93
